Time;durP1;ratioP1;P1;durP2;ratioP2;P2;SDS_P1;SDS_P2;PMS_P1;PMS_P2;Temp;Humidity;BMP_temperature;BMP_pressure;BME280_temperature;BME280_humidity;BME280_pressure;Samples;Min_cycle;Max_cycle;Signal;HPM_P1;HPM_P2
2023/10/13 00:00:34;;;;;;;6.80;5.40;;;;;;;-145.53;100.00;64590.91;6137841;28;109287;-68
2023/10/13 00:03:38;;;;;;;7.60;5.75;;;;;;;-145.53;100.00;64590.91;6138442;28;111496;-67
2023/10/13 00:06:42;;;;;;;6.35;5.70;;;;;;;-145.53;100.00;64590.91;6132294;28;108962;-68
2023/10/13 00:09:45;;;;;;;6.05;5.45;;;;;;;-145.53;100.00;64590.91;6129057;28;108632;-68
2023/10/13 00:12:51;;;;;;;6.20;5.60;;;;;;;-145.53;100.00;64590.91;6135399;28;109256;-67
2023/10/13 00:15:58;;;;;;;6.00;5.40;;;;;;;-145.53;100.00;64590.91;6125672;28;109268;-67
2023/10/13 00:19:01;;;;;;;6.63;5.50;;;;;;;-145.53;100.00;64590.91;6131029;28;109107;-69
2023/10/13 00:22:12;;;;;;;6.10;5.50;;;;;;;-145.53;100.00;64590.91;6132900;28;109303;-67
2023/10/13 00:25:26;;;;;;;8.73;6.80;;;;;;;-145.53;100.00;64590.91;6137101;28;108897;-60
2023/10/13 00:28:42;;;;;;;8.27;7.40;;;;;;;-145.53;100.00;64590.91;6136178;28;109259;-60
2023/10/13 00:31:48;;;;;;;7.50;6.80;;;;;;;-145.53;100.00;64590.91;6125851;28;110151;-60
2023/10/13 00:34:55;;;;;;;7.22;6.40;;;;;;;-145.53;100.00;64590.91;6118738;28;109081;-60
2023/10/13 00:38:03;;;;;;;7.63;6.47;;;;;;;-145.53;100.00;64590.91;6118854;28;109289;-59
2023/10/13 00:41:14;;;;;;;7.20;6.50;;;;;;;-145.53;100.00;64590.91;6113783;28;108823;-60
2023/10/13 00:44:17;;;;;;;8.02;6.78;;;;;;;-145.53;100.00;64590.91;6106147;28;109112;-60
2023/10/13 00:47:37;;;;;;;8.10;6.70;;;;;;;-145.53;100.00;64590.91;6117945;28;109433;-60
2023/10/13 00:50:40;;;;;;;7.60;6.90;;;;;;;-145.53;100.00;64590.91;6135723;28;110611;-60
2023/10/13 00:53:44;;;;;;;7.17;6.40;;;;;;;-145.53;100.00;64590.91;6117887;28;109658;-60
2023/10/13 00:56:57;;;;;;;7.43;6.63;;;;;;;-145.53;100.00;64590.91;6112907;28;109033;-59
2023/10/13 01:00:18;;;;;;;7.10;6.40;;;;;;;-145.53;100.00;64590.91;6111935;28;109150;-60
2023/10/13 01:03:26;;;;;;;7.57;6.78;;;;;;;-145.53;100.00;64590.91;6131340;28;109384;-60
2023/10/13 01:06:30;;;;;;;7.50;5.80;;;;;;;-145.53;100.00;64590.91;6114757;28;109166;-59
2023/10/13 01:09:42;;;;;;;6.20;5.60;;;;;;;-145.53;100.00;64590.91;6136475;28;109316;-59
2023/10/13 01:12:45;;;;;;;6.40;5.80;;;;;;;-145.53;100.00;64590.91;6137245;28;109139;-60
2023/10/13 01:15:49;;;;;;;6.38;5.78;;;;;;;-145.53;100.00;64590.91;6130867;28;110172;-61
2023/10/13 01:18:52;;;;;;;6.60;5.50;;;;;;;-145.53;100.00;64590.91;6121801;28;109411;-60
2023/10/13 01:22:01;;;;;;;6.10;5.50;;;;;;;-145.53;100.00;64590.91;6111057;28;108991;-60
2023/10/13 01:25:12;;;;;;;7.20;5.93;;;;;;;-145.53;100.00;64590.91;6128667;28;110372;-60
2023/10/13 01:28:16;;;;;;;6.55;5.00;;;;;;;-145.53;100.00;64590.91;6126063;28;109347;-59
2023/10/13 01:31:27;;;;;;;7.13;5.82;;;;;;;-145.53;100.00;64590.91;6140855;28;109466;-60
2023/10/13 01:34:33;;;;;;;7.93;5.60;;;;;;;-145.53;100.00;64590.91;6146828;28;109406;-65
2023/10/13 01:37:35;;;;;;;6.50;5.90;;;;;;;-145.53;100.00;64590.91;6135001;28;109046;-65
2023/10/13 01:40:40;;;;;;;6.65;5.80;;;;;;;-145.53;100.00;64590.91;6104478;28;109102;-64
2023/10/13 01:43:43;;;;;;;6.90;6.20;;;;;;;-145.53;100.00;64590.91;6117064;28;109481;-64
2023/10/13 01:46:47;;;;;;;7.50;6.43;;;;;;;-145.53;100.00;64590.91;6135592;28;109056;-65
2023/10/13 01:49:51;;;;;;;6.55;5.90;;;;;;;-145.53;100.00;64590.91;6131422;28;109803;-64
2023/10/13 01:52:59;;;;;;;7.15;6.28;;;;;;;-145.53;100.00;64590.91;6129507;28;110205;-65
2023/10/13 01:56:10;;;;;;;7.53;6.32;;;;;;;-145.53;100.00;64590.91;6134248;28;109366;-64
2023/10/13 01:59:12;;;;;;;7.23;5.90;;;;;;;-145.53;100.00;64590.91;6126310;28;110530;-65
2023/10/13 02:02:19;;;;;;;7.38;6.47;;;;;;;-145.53;100.00;64590.91;6120340;28;109217;-65
2023/10/13 02:05:31;;;;;;;6.77;6.07;;;;;;;-145.53;100.00;64590.91;6133583;28;109272;-65
2023/10/13 02:08:39;;;;;;;5.90;5.30;;;;;;;-145.53;100.00;64590.91;6132627;28;109175;-65
2023/10/13 02:11:46;;;;;;;7.95;5.50;;;;;;;-145.53;100.00;64590.91;6111216;28;109480;-64
2023/10/13 02:14:49;;;;;;;7.90;5.70;;;;;;;-145.53;100.00;64590.91;6112335;28;109812;-64
2023/10/13 02:17:54;;;;;;;7.10;5.80;;;;;;;-145.53;100.00;64590.91;6135490;28;110182;-65
2023/10/13 02:21:05;;;;;;;7.03;5.93;;;;;;;-145.53;100.00;64590.91;6113559;28;109235;-64
2023/10/13 02:24:13;;;;;;;6.10;5.50;;;;;;;-145.53;100.00;64590.91;6109003;28;109021;-64
2023/10/13 02:27:17;;;;;;;8.80;6.43;;;;;;;-145.53;100.00;64590.91;6134560;28;109270;-65
2023/10/13 02:30:23;;;;;;;6.10;5.28;;;;;;;-145.53;100.00;64590.91;6132492;28;109740;-65
2023/10/13 02:33:30;;;;;;;7.38;6.32;;;;;;;-145.53;100.00;64590.91;6134350;28;110181;-65
2023/10/13 02:36:37;;;;;;;8.57;5.90;;;;;;;-145.53;100.00;64590.91;6127717;28;109152;-65
2023/10/13 02:39:41;;;;;;;8.23;6.20;;;;;;;-145.53;100.00;64590.91;6129431;28;110841;-64
2023/10/13 02:42:45;;;;;;;7.55;5.68;;;;;;;-145.53;100.00;64590.91;6134653;28;109075;-63
2023/10/13 02:45:57;;;;;;;7.00;6.30;;;;;;;-145.53;100.00;64590.91;6138075;28;109234;-61
2023/10/13 02:49:02;;;;;;;16.35;14.88;;;;;;;-145.53;100.00;64590.91;6124627;28;109808;-61
2023/10/13 02:52:08;;;;;;;11.80;10.52;;;;;;;-145.53;100.00;64590.91;6136982;28;109119;-62
2023/10/13 02:55:14;;;;;;;16.90;15.40;;;;;;;-145.53;100.00;64590.91;6137961;28;109269;-62
2023/10/13 02:58:18;;;;;;;14.83;13.37;;;;;;;-145.53;100.00;64590.91;6130663;28;109278;-62
2023/10/13 03:01:27;;;;;;;12.85;11.60;;;;;;;-145.53;100.00;64590.91;6136158;28;109225;-62
2023/10/13 03:04:30;;;;;;;10.07;9.07;;;;;;;-145.53;100.00;64590.91;6130869;28;108814;-61
2023/10/13 03:07:36;;;;;;;9.80;8.90;;;;;;;-145.53;100.00;64590.91;6115235;28;108984;-62
2023/10/13 03:10:46;;;;;;;18.50;16.70;;;;;;;-145.53;100.00;64590.91;6127712;28;109747;-62
2023/10/13 03:13:51;;;;;;;32.10;28.70;;;;;;;-145.53;100.00;64590.91;6138015;28;109215;-62
2023/10/13 03:17:02;;;;;;;21.73;19.73;;;;;;;-145.53;100.00;64590.91;6136289;28;109034;-62
2023/10/13 03:20:07;;;;;;;19.42;17.52;;;;;;;-145.53;100.00;64590.91;6130646;28;109032;-62
2023/10/13 03:23:09;;;;;;;22.97;20.87;;;;;;;-145.53;100.00;64590.91;6107686;28;110527;-64
2023/10/13 03:26:16;;;;;;;52.65;47.25;;;;;;;-145.53;100.00;64590.91;6129708;28;109132;-63
2023/10/13 03:29:24;;;;;;;28.83;26.02;;;;;;;-145.53;100.00;64590.91;6137370;28;109116;-63
2023/10/13 03:32:30;;;;;;;32.37;29.37;;;;;;;-145.53;100.00;64590.91;6127041;28;112163;-64
2023/10/13 03:35:39;;;;;;;20.13;18.13;;;;;;;-145.53;100.00;64590.91;6134653;28;109230;-63
2023/10/13 03:38:44;;;;;;;25.80;23.57;;;;;;;-145.53;100.00;64590.91;6139318;28;110023;-63
2023/10/13 03:41:53;;;;;;;38.90;35.50;;;;;;;-145.53;100.00;64590.91;6114782;28;109237;-63
2023/10/13 03:45:01;;;;;;;35.03;31.92;;;;;;;-145.53;100.00;64590.91;6123765;28;110310;-63
2023/10/13 03:48:08;;;;;;;18.95;16.60;;;;;;;-145.53;100.00;64590.91;6138986;28;109056;-64
2023/10/13 03:51:14;;;;;;;16.30;14.80;;;;;;;-145.53;100.00;64590.91;6127076;28;109405;-62
2023/10/13 03:54:18;;;;;;;14.03;12.73;;;;;;;-145.53;100.00;64590.91;6136711;28;109072;-66
2023/10/13 03:57:21;;;;;;;16.23;13.45;;;;;;;-145.53;100.00;64590.91;6112034;28;109299;-59
2023/10/13 04:00:27;;;;;;;14.13;12.68;;;;;;;-145.53;100.00;64590.91;6125478;28;109315;-59
2023/10/13 04:03:33;;;;;;;13.45;12.05;;;;;;;-145.53;100.00;64590.91;6131779;28;109150;-58
2023/10/13 04:07:13;;;;;;;11.80;9.10;;;;;;;-145.53;100.00;64590.91;6128830;28;111792;-60
2023/10/13 04:17:13;;;;;;;13.45;12.15;;;;;;;-145.53;100.00;64590.91;6126917;28;109265;-60
2023/10/13 04:20:32;;;;;;;13.50;11.60;;;;;;;-145.53;100.00;64590.91;6132649;28;109093;-60
2023/10/13 04:24:09;;;;;;;13.40;12.00;;;;;;;-145.53;100.00;64590.91;6136014;28;109398;-59
2023/10/13 04:27:29;;;;;;;12.48;11.18;;;;;;;-145.53;100.00;64590.91;6114398;28;109079;-59
2023/10/13 04:30:51;;;;;;;12.40;11.10;;;;;;;-145.53;100.00;64590.91;6115695;28;109043;-60
2023/10/13 04:34:02;;;;;;;19.80;17.90;;;;;;;-145.53;100.00;64590.91;6137591;28;110008;-61
2023/10/13 04:37:28;;;;;;;37.08;33.97;;;;;;;-145.53;100.00;64590.91;6137367;28;109119;-59
2023/10/13 04:40:35;;;;;;;22.40;20.40;;;;;;;-145.53;100.00;64590.91;6129222;28;111969;-62
2023/10/13 04:47:08;;;;;;;16.55;14.85;;;;;;;-145.53;100.00;64590.91;6137129;28;109132;-59
2023/10/13 04:50:22;;;;;;;17.27;15.50;;;;;;;-145.53;100.00;64590.91;6137124;28;108999;-59
2023/10/13 04:53:33;;;;;;;16.43;13.97;;;;;;;-145.53;100.00;64590.91;6127349;28;109051;-59
2023/10/13 05:04:08;;;;;;;19.75;12.73;;;;;;;-145.53;100.00;64590.91;6138305;28;109104;-61
2023/10/13 06:31:22;;;;;;;9.20;8.32;;;;;;;-145.53;100.00;64590.91;6135438;28;110655;-63
2023/10/13 06:34:37;;;;;;;10.10;9.20;;;;;;;-145.53;100.00;64590.91;6125407;28;108962;-62
2023/10/13 06:37:42;;;;;;;9.70;8.70;;;;;;;-145.53;100.00;64590.91;6113441;28;109104;-63
2023/10/13 06:40:48;;;;;;;9.50;8.50;;;;;;;-145.53;100.00;64590.91;6110821;28;109249;-62
2023/10/13 06:43:59;;;;;;;9.40;8.20;;;;;;;-145.53;100.00;64590.91;6110781;28;109519;-62
2023/10/13 06:47:05;;;;;;;9.02;8.10;;;;;;;-145.53;100.00;64590.91;6116196;28;109233;-63
2023/10/13 06:50:15;;;;;;;9.98;8.95;;;;;;;-145.53;100.00;64590.91;6134560;28;109904;-64
2023/10/13 06:53:18;;;;;;;10.73;9.63;;;;;;;-145.53;100.00;64590.91;6135199;28;109475;-64
2023/10/13 06:56:27;;;;;;;9.93;8.93;;;;;;;-145.53;100.00;64590.91;6130049;28;109555;-63
2023/10/13 06:59:32;;;;;;;9.50;8.60;;;;;;;-145.53;100.00;64590.91;6129069;28;110100;-62
2023/10/13 07:02:37;;;;;;;10.00;9.10;;;;;;;-145.53;100.00;64590.91;6133935;28;109768;-63
2023/10/13 07:05:41;;;;;;;9.60;8.50;;;;;;;-145.53;100.00;64590.91;6151404;28;109242;-63
2023/10/13 07:08:51;;;;;;;10.57;9.57;;;;;;;-145.53;100.00;64590.91;6100529;28;109264;-61
2023/10/13 07:12:00;;;;;;;12.02;10.93;;;;;;;-145.53;100.00;64590.91;6110919;28;109362;-62
2023/10/13 07:15:05;;;;;;;12.40;11.15;;;;;;;-145.53;100.00;64590.91;6109829;28;109260;-62
2023/10/13 07:18:12;;;;;;;12.07;10.97;;;;;;;-145.53;100.00;64590.91;6110469;28;109278;-61
2023/10/13 07:21:16;;;;;;;12.20;11.10;;;;;;;-145.53;100.00;64590.91;6102910;28;109124;-61
2023/10/13 07:24:22;;;;;;;11.63;10.63;;;;;;;-145.53;100.00;64590.91;6115091;28;109699;-62
2023/10/13 07:27:25;;;;;;;12.00;10.80;;;;;;;-145.53;100.00;64590.91;6131417;28;109490;-60
2023/10/13 07:30:30;;;;;;;11.25;10.13;;;;;;;-145.53;100.00;64590.91;6132966;28;109242;-64
2023/10/13 07:33:34;;;;;;;11.25;10.05;;;;;;;-145.53;100.00;64590.91;6125073;28;110233;-61
2023/10/13 07:36:40;;;;;;;11.73;10.63;;;;;;;-145.53;100.00;64590.91;6128807;28;109058;-60
2023/10/13 07:39:44;;;;;;;12.90;11.60;;;;;;;-145.53;100.00;64590.91;6114418;28;109829;-60
2023/10/13 07:42:47;;;;;;;12.50;11.40;;;;;;;-145.53;100.00;64590.91;6103369;28;110132;-59
2023/10/13 07:45:52;;;;;;;13.00;11.70;;;;;;;-145.53;100.00;64590.91;6113670;28;109259;-61
2023/10/13 07:49:08;;;;;;;14.32;13.10;;;;;;;-145.53;100.00;64590.91;6113922;28;109476;-60
2023/10/13 07:52:23;;;;;;;15.20;13.70;;;;;;;-145.53;100.00;64590.91;6127450;28;110091;-60
2023/10/13 07:55:33;;;;;;;15.50;14.10;;;;;;;-145.53;100.00;64590.91;6128281;28;109979;-61
2023/10/13 07:58:47;;;;;;;16.33;14.82;;;;;;;-145.53;100.00;64590.91;6137287;28;109409;-61
2023/10/13 08:02:12;;;;;;;15.13;13.82;;;;;;;-145.53;100.00;64590.91;6138473;28;109446;-61
2023/10/13 08:05:25;;;;;;;16.20;14.60;;;;;;;-145.53;100.00;64590.91;6127494;28;109964;-61
2023/10/13 08:08:35;;;;;;;16.20;14.70;;;;;;;-145.53;100.00;64590.91;6115425;28;109913;-61
2023/10/13 08:11:39;;;;;;;15.73;14.23;;;;;;;-145.53;100.00;64590.91;6121402;28;109493;-61
2023/10/13 08:14:44;;;;;;;15.60;14.10;;;;;;;-145.53;100.00;64590.91;6137659;28;109150;-61
2023/10/13 08:17:47;;;;;;;16.13;14.43;;;;;;;-145.53;100.00;64590.91;6125934;28;110485;-61
2023/10/13 08:20:53;;;;;;;15.63;14.02;;;;;;;-145.53;100.00;64590.91;6137199;28;110200;-61
2023/10/13 08:24:06;;;;;;;16.37;13.83;;;;;;;-145.53;100.00;64590.91;6137938;28;109389;-62
2023/10/13 08:30:52;;;;;;;13.45;12.15;;;;;;;-145.53;100.00;64590.91;6108426;28;109148;-62
2023/10/13 08:34:05;;;;;;;15.05;13.30;;;;;;;-145.53;100.00;64590.91;6130051;28;109258;-61
2023/10/13 08:37:28;;;;;;;14.80;13.30;;;;;;;-145.53;100.00;64590.91;6137614;28;109225;-62
2023/10/13 08:43:52;;;;;;;15.35;13.85;;;;;;;-145.53;100.00;64590.91;6113337;28;109116;-62
2023/10/13 08:47:05;;;;;;;16.50;14.90;;;;;;;-145.53;100.00;64590.91;6113346;28;110090;-62
2023/10/13 08:50:31;;;;;;;17.63;16.00;;;;;;;-145.53;100.00;64590.91;6106747;28;109060;-62
2023/10/13 08:53:44;;;;;;;19.23;17.52;;;;;;;-145.53;100.00;64590.91;6112513;28;109234;-62
2023/10/13 08:56:55;;;;;;;18.60;16.90;;;;;;;-145.53;100.00;64590.91;6119883;28;109525;-62
2023/10/13 09:00:26;;;;;;;20.40;18.60;;;;;;;-145.53;100.00;64590.91;6136476;28;109164;-62
2023/10/13 09:03:38;;;;;;;19.50;17.80;;;;;;;-145.53;100.00;64590.91;6137239;28;110312;-62
2023/10/13 09:06:46;;;;;;;19.40;17.60;;;;;;;-145.53;100.00;64590.91;6149620;28;109045;-62
2023/10/13 09:10:11;;;;;;;18.38;16.77;;;;;;;-145.53;100.00;64590.91;6112477;28;109132;-62
2023/10/13 09:13:20;;;;;;;18.43;16.63;;;;;;;-145.53;100.00;64590.91;6102818;28;109008;-63
2023/10/13 09:16:51;;;;;;;18.40;16.70;;;;;;;-145.53;100.00;64590.91;6112414;28;109247;-62
2023/10/13 09:19:56;;;;;;;18.52;16.92;;;;;;;-145.53;100.00;64590.91;6112700;28;110813;-62
2023/10/13 09:23:08;;;;;;;18.38;16.48;;;;;;;-145.53;100.00;64590.91;6111455;28;109405;-62
2023/10/13 09:26:13;;;;;;;18.25;16.52;;;;;;;-145.53;100.00;64590.91;6102453;28;110172;-63
2023/10/13 09:29:19;;;;;;;18.10;16.50;;;;;;;-145.53;100.00;64590.91;6136479;28;109477;-62
2023/10/13 09:32:22;;;;;;;18.10;16.50;;;;;;;-145.53;100.00;64590.91;6136459;28;109440;-62
2023/10/13 09:35:27;;;;;;;18.57;16.87;;;;;;;-145.53;100.00;64590.91;6131577;28;109327;-62
2023/10/13 09:38:31;;;;;;;17.98;16.38;;;;;;;-145.53;100.00;64590.91;6130799;28;109107;-62
2023/10/13 09:41:37;;;;;;;17.30;15.70;;;;;;;-145.53;100.00;64590.91;6133509;28;109017;-62
2023/10/13 09:44:41;;;;;;;16.67;15.18;;;;;;;-145.53;100.00;64590.91;6111983;28;109233;-61
2023/10/13 09:47:52;;;;;;;16.43;15.03;;;;;;;-145.53;100.00;64590.91;6113702;28;109414;-61
2023/10/13 09:51:01;;;;;;;15.65;14.05;;;;;;;-145.53;100.00;64590.91;6135886;28;109258;-61
2023/10/13 09:54:09;;;;;;;16.58;14.98;;;;;;;-145.53;100.00;64590.91;6113155;28;109612;-61
2023/10/13 09:57:40;;;;;;;16.40;15.00;;;;;;;-145.53;100.00;64590.91;6121334;28;108798;-61
2023/10/13 10:00:56;;;;;;;15.85;14.40;;;;;;;-145.53;100.00;64590.91;6125227;28;109223;-61
2023/10/13 10:04:08;;;;;;;15.80;14.30;;;;;;;-145.53;100.00;64590.91;6135435;28;109689;-61
2023/10/13 10:07:19;;;;;;;15.87;14.47;;;;;;;-145.53;100.00;64590.91;6129485;28;109480;-61
2023/10/13 10:10:23;;;;;;;15.32;13.80;;;;;;;-145.53;100.00;64590.91;6101257;28;111384;-61
2023/10/13 10:13:36;;;;;;;15.07;13.70;;;;;;;-145.53;100.00;64590.91;6127077;28;109280;-61
2023/10/13 10:16:49;;;;;;;14.70;13.40;;;;;;;-145.53;100.00;64590.91;6134303;28;109475;-61
2023/10/13 10:19:54;;;;;;;15.57;14.17;;;;;;;-145.53;100.00;64590.91;6111419;28;110461;-61
2023/10/13 10:22:59;;;;;;;14.43;13.23;;;;;;;-145.53;100.00;64590.91;6100784;28;110825;-61
2023/10/13 10:26:11;;;;;;;15.20;13.80;;;;;;;-145.53;100.00;64590.91;6110588;28;110296;-61
2023/10/13 10:29:16;;;;;;;15.20;13.80;;;;;;;-145.53;100.00;64590.91;6111502;28;109062;-61
2023/10/13 10:32:19;;;;;;;14.40;13.10;;;;;;;-145.53;100.00;64590.91;6109093;28;109309;-62
2023/10/13 10:35:26;;;;;;;14.57;13.18;;;;;;;-145.53;100.00;64590.91;6130070;28;109042;-62
2023/10/13 10:38:37;;;;;;;14.23;13.02;;;;;;;-145.53;100.00;64590.91;6120864;28;110633;-62
2023/10/13 10:41:45;;;;;;;13.80;12.60;;;;;;;-145.53;100.00;64590.91;6116999;28;109605;-62
2023/10/13 10:44:55;;;;;;;14.20;12.80;;;;;;;-145.53;100.00;64590.91;6100111;28;109230;-61
2023/10/13 10:47:59;;;;;;;14.23;12.93;;;;;;;-145.53;100.00;64590.91;6111229;28;110270;-62
2023/10/13 10:51:13;;;;;;;14.27;13.00;;;;;;;-145.53;100.00;64590.91;6110927;28;109378;-61
2023/10/13 10:54:19;;;;;;;13.95;12.70;;;;;;;-145.53;100.00;64590.91;6111018;28;109211;-62
2023/10/13 10:57:28;;;;;;;14.13;12.75;;;;;;;-145.53;100.00;64590.91;6108728;28;109796;-62
2023/10/13 11:00:46;;;;;;;13.20;12.00;;;;;;;-145.53;100.00;64590.91;6138106;28;109281;-62
2023/10/13 11:03:58;;;;;;;12.48;11.38;;;;;;;-145.53;100.00;64590.91;6138988;28;109372;-62
2023/10/13 11:07:03;;;;;;;12.70;11.60;;;;;;;-145.53;100.00;64590.91;6127668;28;109680;-62
2023/10/13 11:10:19;;;;;;;13.45;12.25;;;;;;;-145.53;100.00;64590.91;6139005;28;109062;-62
2023/10/13 11:13:22;;;;;;;12.50;11.23;;;;;;;-145.53;100.00;64590.91;6138319;28;108977;-62
2023/10/13 11:16:34;;;;;;;11.70;10.70;;;;;;;-145.53;100.00;64590.91;6138962;28;109572;-63
2023/10/13 11:19:38;;;;;;;12.32;11.23;;;;;;;-145.53;100.00;64590.91;6128627;28;109249;-62
2023/10/13 11:22:46;;;;;;;12.38;11.18;;;;;;;-145.53;100.00;64590.91;6138553;28;109258;-62
2023/10/13 11:25:58;;;;;;;11.00;10.00;;;;;;;-145.53;100.00;64590.91;6138517;28;108862;-63
2023/10/13 11:29:06;;;;;;;10.30;9.30;;;;;;;-145.53;100.00;64590.91;6132217;28;109062;-62
2023/10/13 11:32:19;;;;;;;11.30;10.25;;;;;;;-145.53;100.00;64590.91;6133072;28;108988;-64
2023/10/13 11:35:23;;;;;;;10.80;9.70;;;;;;;-145.53;100.00;64590.91;6114142;28;109116;-62
2023/10/13 11:38:29;;;;;;;10.90;9.90;;;;;;;-145.53;100.00;64590.91;6125686;28;110241;-63
2023/10/13 11:41:34;;;;;;;11.10;10.00;;;;;;;-145.53;100.00;64590.91;6127035;28;109052;-62
2023/10/13 11:44:43;;;;;;;9.32;8.52;;;;;;;-145.53;100.00;64590.91;6137762;28;109124;-62
2023/10/13 11:47:58;;;;;;;10.70;9.70;;;;;;;-145.53;100.00;64590.91;6137981;28;111690;-62
2023/10/13 11:51:05;;;;;;;9.40;8.50;;;;;;;-145.53;100.00;64590.91;6138277;28;109386;-62
2023/10/13 11:54:08;;;;;;;9.85;8.95;;;;;;;-145.53;100.00;64590.91;6126625;28;112112;-62
2023/10/13 11:57:11;;;;;;;10.18;9.27;;;;;;;-145.53;100.00;64590.91;6137258;28;109139;-62
2023/10/13 12:00:50;;;;;;;9.85;9.05;;;;;;;-145.53;100.00;64590.91;6136124;28;110526;-62
2023/10/13 12:07:21;;;;;;;9.20;8.30;;;;;;;-145.53;100.00;64590.91;6136981;28;109399;-62
2023/10/13 12:10:49;;;;;;;9.48;8.57;;;;;;;-145.53;100.00;64590.91;6113830;28;108991;-62
2023/10/13 12:13:52;;;;;;;9.40;8.50;;;;;;;-145.53;100.00;64590.91;6127153;28;109298;-63
2023/10/13 12:16:55;;;;;;;9.05;8.20;;;;;;;-145.53;100.00;64590.91;6127134;28;109119;-62
2023/10/13 12:20:04;;;;;;;8.95;8.10;;;;;;;-145.53;100.00;64590.91;6116171;28;109488;-62
2023/10/13 12:23:15;;;;;;;8.20;7.40;;;;;;;-145.53;100.00;64590.91;6114006;28;108989;-62
2023/10/13 12:26:20;;;;;;;8.13;7.43;;;;;;;-145.53;100.00;64590.91;6104206;28;109731;-62
2023/10/13 12:29:28;;;;;;;8.20;7.10;;;;;;;-145.53;100.00;64590.91;6113157;28;109269;-62
2023/10/13 12:32:31;;;;;;;8.48;7.68;;;;;;;-145.53;100.00;64590.91;6114912;28;109203;-62
2023/10/13 12:35:44;;;;;;;8.20;7.40;;;;;;;-145.53;100.00;64590.91;6113519;28;109107;-62
2023/10/13 12:49:15;;;;;;;8.00;7.00;;;;;;;-145.53;100.00;64590.91;6102345;28;110082;-62
2023/10/13 12:52:25;;;;;;;7.40;6.70;;;;;;;-145.53;100.00;64590.91;6113982;28;109386;-62
2023/10/13 12:55:29;;;;;;;7.40;6.70;;;;;;;-145.53;100.00;64590.91;6137173;28;109289;-62
2023/10/13 12:58:32;;;;;;;7.32;6.68;;;;;;;-145.53;100.00;64590.91;6136329;28;109149;-61
2023/10/13 13:01:41;;;;;;;7.00;6.35;;;;;;;-145.53;100.00;64590.91;6125986;28;109123;-61
2023/10/13 13:04:47;;;;;;;7.10;6.40;;;;;;;-145.53;100.00;64590.91;6136252;28;109686;-61
2023/10/13 13:07:53;;;;;;;7.55;6.90;;;;;;;-145.53;100.00;64590.91;6137059;28;109323;-60
2023/10/13 13:10:57;;;;;;;7.00;6.40;;;;;;;-145.53;100.00;64590.91;6134870;28;111930;-60
2023/10/13 13:14:01;;;;;;;7.28;6.57;;;;;;;-145.53;100.00;64590.91;6129883;28;109372;-61
2023/10/13 13:17:05;;;;;;;7.18;6.47;;;;;;;-145.53;100.00;64590.91;6137042;28;110130;-61
2023/10/13 13:20:25;;;;;;;6.60;6.00;;;;;;;-145.53;100.00;64590.91;6135174;28;109030;-61
2023/10/13 13:23:31;;;;;;;7.22;6.18;;;;;;;-145.53;100.00;64590.91;6119216;28;109134;-62
2023/10/13 13:26:34;;;;;;;6.32;5.72;;;;;;;-145.53;100.00;64590.91;6112883;28;109410;-60
2023/10/13 13:29:37;;;;;;;6.10;5.50;;;;;;;-145.53;100.00;64590.91;6112513;28;109124;-61
2023/10/13 13:32:41;;;;;;;6.85;6.00;;;;;;;-145.53;100.00;64590.91;6115079;28;109769;-61
2023/10/13 13:35:48;;;;;;;6.40;5.80;;;;;;;-145.53;100.00;64590.91;6124877;28;110155;-61
2023/10/13 13:38:56;;;;;;;5.70;5.10;;;;;;;-145.53;100.00;64590.91;6136048;28;109576;-61
2023/10/13 13:41:59;;;;;;;6.68;5.80;;;;;;;-145.53;100.00;64590.91;6136062;28;109221;-61
2023/10/13 13:45:02;;;;;;;6.25;5.65;;;;;;;-145.53;100.00;64590.91;6133144;28;109261;-61
2023/10/13 13:48:08;;;;;;;5.80;5.20;;;;;;;-145.53;100.00;64590.91;6128983;28;110362;-61
2023/10/13 13:51:15;;;;;;;5.80;5.20;;;;;;;-145.53;100.00;64590.91;6135709;28;109586;-61
2023/10/13 13:54:21;;;;;;;6.03;5.40;;;;;;;-145.53;100.00;64590.91;6135695;28;109614;-61
2023/10/13 13:57:24;;;;;;;6.72;5.15;;;;;;;-145.53;100.00;64590.91;6126550;28;108877;-61
2023/10/13 14:00:37;;;;;;;6.22;5.63;;;;;;;-145.53;100.00;64590.91;6134747;28;110169;-61
2023/10/13 14:03:45;;;;;;;5.55;5.05;;;;;;;-145.53;100.00;64590.91;6136103;28;108857;-61
2023/10/13 14:06:50;;;;;;;5.57;4.97;;;;;;;-145.53;100.00;64590.91;6134782;28;109068;-61
2023/10/13 14:10:05;;;;;;;6.00;5.38;;;;;;;-145.53;100.00;64590.91;6109446;28;110090;-61
2023/10/13 14:13:13;;;;;;;6.20;5.60;;;;;;;-145.53;100.00;64590.91;6111210;28;109091;-61
2023/10/13 14:16:17;;;;;;;5.90;5.38;;;;;;;-145.53;100.00;64590.91;6111294;28;109074;-61
2023/10/13 14:19:26;;;;;;;6.28;5.68;;;;;;;-145.53;100.00;64590.91;6106341;28;110942;-60
2023/10/13 14:22:36;;;;;;;7.10;6.40;;;;;;;-145.53;100.00;64590.91;6105384;28;109195;-61
2023/10/13 14:25:44;;;;;;;6.25;5.00;;;;;;;-145.53;100.00;64590.91;6111025;28;109213;-61
2023/10/13 14:28:51;;;;;;;5.70;5.10;;;;;;;-145.53;100.00;64590.91;6111325;28;110033;-61
2023/10/13 14:31:55;;;;;;;6.65;5.40;;;;;;;-145.53;100.00;64590.91;6100919;28;109063;-61
2023/10/13 14:35:00;;;;;;;5.47;4.90;;;;;;;-145.53;100.00;64590.91;6131328;28;109373;-61
2023/10/13 14:38:04;;;;;;;5.43;4.93;;;;;;;-145.53;100.00;64590.91;6134524;28;109381;-61
2023/10/13 14:41:09;;;;;;;6.80;5.00;;;;;;;-145.53;100.00;64590.91;6135419;28;109259;-61
2023/10/13 14:44:12;;;;;;;5.80;4.80;;;;;;;-145.53;100.00;64590.91;6124113;28;109586;-61
2023/10/13 14:47:16;;;;;;;6.25;5.20;;;;;;;-145.53;100.00;64590.91;6135048;28;109097;-61
2023/10/13 14:50:20;;;;;;;5.97;5.40;;;;;;;-145.53;100.00;64590.91;6134926;28;109254;-61
2023/10/13 14:53:23;;;;;;;6.60;5.63;;;;;;;-145.53;100.00;64590.91;6130156;28;109274;-61
2023/10/13 14:56:28;;;;;;;8.60;7.70;;;;;;;-145.53;100.00;64590.91;6129939;28;110426;-61
2023/10/13 14:59:38;;;;;;;5.93;5.32;;;;;;;-145.53;100.00;64590.91;6133933;28;109108;-61
2023/10/13 15:02:43;;;;;;;7.43;5.90;;;;;;;-145.53;100.00;64590.91;6135134;28;109047;-62
2023/10/13 15:05:46;;;;;;;7.75;6.95;;;;;;;-145.53;100.00;64590.91;6104287;28;109107;-62
2023/10/13 15:08:49;;;;;;;6.50;5.80;;;;;;;-145.53;100.00;64590.91;6110298;28;109166;-61
2023/10/13 15:11:54;;;;;;;7.97;6.53;;;;;;;-145.53;100.00;64590.91;6110724;28;109446;-61
2023/10/13 15:14:58;;;;;;;10.32;7.68;;;;;;;-145.53;100.00;64590.91;6110776;28;109100;-61
2023/10/13 15:18:02;;;;;;;7.57;6.68;;;;;;;-145.53;100.00;64590.91;6100062;28;109082;-61
2023/10/13 15:21:08;;;;;;;12.30;6.47;;;;;;;-145.53;100.00;64590.91;6118958;28;109260;-62
2023/10/13 15:24:14;;;;;;;15.77;6.80;;;;;;;-145.53;100.00;64590.91;6129810;28;111906;-61
2023/10/13 15:27:21;;;;;;;26.70;8.80;;;;;;;-145.53;100.00;64590.91;6129710;28;110041;-67
2023/10/13 15:30:26;;;;;;;28.98;8.82;;;;;;;-145.53;100.00;64590.91;6124154;28;111976;-61
2023/10/13 15:33:30;;;;;;;26.30;10.70;;;;;;;-145.53;100.00;64590.91;6130709;28;110370;-61
2023/10/13 15:36:34;;;;;;;30.05;10.80;;;;;;;-145.53;100.00;64590.91;6126287;28;109589;-60
2023/10/13 15:39:39;;;;;;;24.80;11.65;;;;;;;-145.53;100.00;64590.91;6118965;28;109653;-70
2023/10/13 15:42:45;;;;;;;23.58;12.82;;;;;;;-145.53;100.00;64590.91;6137053;28;109045;-72
2023/10/13 15:45:49;;;;;;;24.40;13.55;;;;;;;-145.53;100.00;64590.91;6135355;28;109188;-73
2023/10/13 15:48:54;;;;;;;25.23;14.57;;;;;;;-145.53;100.00;64590.91;6135931;28;109145;-73
2023/10/13 15:52:16;;;;;;;21.27;11.77;;;;;;;-145.53;100.00;64590.91;6125199;28;110224;-76
2023/10/13 15:55:19;;;;;;;19.37;12.00;;;;;;;-145.53;100.00;64590.91;6137356;28;109703;-70
2023/10/13 15:58:25;;;;;;;21.75;12.63;;;;;;;-145.53;100.00;64590.91;6138317;28;109599;-75